createdAt,value
2023-03-24T10:01:19.480Z,84.40
2023-03-24T10:03:47.993Z,85.10
2023-03-24T10:06:21.842Z,84.30
2023-03-24T10:08:55.251Z,83.90
2023-03-24T10:11:30.530Z,81.80
2023-03-24T10:14:13.903Z,82.10
2023-03-24T10:16:51.049Z,81.80
2023-03-24T10:19:27.889Z,81.50
2023-03-24T10:22:02.887Z,81.60
2023-03-24T10:24:33.311Z,81.50
2023-03-24T10:27:08.029Z,81.40
2023-03-24T10:29:38.361Z,81.00
2023-03-24T10:32:16.555Z,80.90
2023-03-24T10:34:49.308Z,81.10
2023-03-24T10:37:17.442Z,81.00
2023-03-24T10:39:45.614Z,81.40
2023-03-24T10:42:21.676Z,82.10
2023-03-24T10:44:52.206Z,82.80
2023-03-24T10:47:25.663Z,83.30
2023-03-24T10:49:55.762Z,83.80
2023-03-24T10:52:25.333Z,84.00
2023-03-24T10:54:58.422Z,84.80
2023-03-24T10:57:28.549Z,85.10
2023-03-24T11:00:00.504Z,83.50
2023-03-24T11:02:32.014Z,83.20
2023-03-24T11:05:03.645Z,83.20
2023-03-24T11:07:35.645Z,82.40
2023-03-24T11:10:08.684Z,81.90
2023-03-24T11:12:38.978Z,81.30
2023-03-24T11:15:22.097Z,80.60
2023-03-24T11:17:55.894Z,80.10
2023-03-24T11:20:30.480Z,79.90
2023-03-24T11:23:01.251Z,79.30
2023-03-24T11:25:33.934Z,79.30
2023-03-24T11:28:04.620Z,78.50
2023-03-24T11:30:36.169Z,78.50
2023-03-24T11:33:07.095Z,78.50
2023-03-24T11:35:41.766Z,77.80
2023-03-24T11:38:17.642Z,77.50
2023-03-24T11:40:53.740Z,77.20
2023-03-24T11:43:22.640Z,77.30
2023-03-24T11:45:59.957Z,76.60
2023-03-24T11:48:34.675Z,76.20
2023-03-24T11:51:04.129Z,76.40
2023-03-24T11:53:43.613Z,77.80
2023-03-24T11:56:18.715Z,77.40
2023-03-24T11:58:51.101Z,77.70
2023-03-24T12:01:29.564Z,78.30
2023-03-24T12:04:19.677Z,78.80
2023-03-24T12:06:58.911Z,79.50
2023-03-24T12:09:34.006Z,80.20
2023-03-24T12:12:17.163Z,82.20
2023-03-24T12:14:58.342Z,82.00
2023-03-24T12:17:31.183Z,83.20
2023-03-24T12:20:14.716Z,83.60
2023-03-24T12:22:54.844Z,84.70
2023-03-24T12:25:40.007Z,85.00
2023-03-24T12:28:30.925Z,85.30
2023-03-24T12:31:11.263Z,85.00
2023-03-24T12:33:49.792Z,85.30
2023-03-24T12:36:38.999Z,85.20
2023-03-24T12:39:11.205Z,85.40
2023-03-24T12:42:07.027Z,85.60
2023-03-24T12:44:59.244Z,85.70
2023-03-24T12:47:44.652Z,85.90
2023-03-24T12:50:28.060Z,86.20
2023-03-24T12:53:18.075Z,86.20
2023-03-24T12:55:51.435Z,86.30
2023-03-24T12:58:23.680Z,86.20
2023-03-24T13:01:02.164Z,86.30
2023-03-24T13:03:35.179Z,86.40
2023-03-24T13:06:17.572Z,86.60
2023-03-24T13:08:55.891Z,86.50
2023-03-24T13:11:35.530Z,86.60
2023-03-24T13:14:05.840Z,86.70
2023-03-24T13:16:37.478Z,86.90
2023-03-24T13:19:13.801Z,86.90
2023-03-24T13:21:42.490Z,86.90
2023-03-24T13:24:15.401Z,87.10
2023-03-24T13:26:54.113Z,87.30
2023-03-24T13:29:48.383Z,87.40
2023-03-24T13:32:32.713Z,87.40
2023-03-24T13:35:07.722Z,87.70
2023-03-24T13:37:37.387Z,87.80
2023-03-24T13:40:11.974Z,87.90
2023-03-24T13:42:46.641Z,88.00
2023-03-24T13:45:28.385Z,87.90
2023-03-24T13:48:07.878Z,88.00
2023-03-24T13:50:39.467Z,88.10
2023-03-24T13:53:13.802Z,88.90
2023-03-24T13:55:50.417Z,87.90
2023-03-24T13:58:21.917Z,88.30
2023-03-24T14:01:15.965Z,88.60
2023-03-24T14:03:45.364Z,88.10
2023-03-24T14:06:17.336Z,88.50
2023-03-24T14:09:01.442Z,88.40
2023-03-24T14:12:08.656Z,88.60
2023-03-24T14:14:37.909Z,88.90
2023-03-24T14:17:13.852Z,88.80
2023-03-24T14:19:43.557Z,89.00
2023-03-24T14:22:15.277Z,89.10
2023-03-24T14:24:45.877Z,89.10
2023-03-24T14:27:32.635Z,89.20
2023-03-24T14:30:03.961Z,89.10
2023-03-24T14:32:37.975Z,90.00
2023-03-24T14:35:07.086Z,90.00
2023-03-24T14:37:35.038Z,90.00
2023-03-24T14:40:03.896Z,90.10
2023-03-24T14:43:13.601Z,90.10
2023-03-24T14:45:52.982Z,90.20
2023-03-24T14:48:28.558Z,90.20
2023-03-24T14:51:01.922Z,90.20
2023-03-24T14:53:30.268Z,90.20
2023-03-24T14:55:59.059Z,90.30
2023-03-24T14:58:35.705Z,90.30
2023-03-24T15:01:07.884Z,90.40
2023-03-24T15:03:45.808Z,90.40
2023-03-24T15:06:15.751Z,90.40
2023-03-24T15:08:47.668Z,90.40
2023-03-24T15:11:17.338Z,90.40
2023-03-24T15:13:49.466Z,90.70
2023-03-24T15:16:20.682Z,90.40
2023-03-24T15:19:00.444Z,90.50
2023-03-24T15:21:33.366Z,90.50
2023-03-24T15:24:02.501Z,90.50
2023-03-24T15:26:32.803Z,90.60
2023-03-24T15:29:03.882Z,90.50
2023-03-24T15:31:31.920Z,90.60
2023-03-24T15:34:08.527Z,90.50
2023-03-24T15:36:45.563Z,90.60
2023-03-24T15:39:21.753Z,90.70
2023-03-24T15:41:53.035Z,90.70
2023-03-24T15:44:25.860Z,90.60
2023-03-24T15:46:57.215Z,90.70
2023-03-24T15:49:28.377Z,90.70
2023-03-24T15:51:59.529Z,90.70
2023-03-24T15:54:30.814Z,90.80
2023-03-24T15:57:15.021Z,90.50
2023-03-24T15:59:49.273Z,90.50
2023-03-24T16:02:31.283Z,90.50
2023-03-24T16:05:11.006Z,90.40
2023-03-24T16:07:40.681Z,90.70
2023-03-24T16:10:26.333Z,90.70
2023-03-24T16:12:54.847Z,90.70
2023-03-24T16:15:24.537Z,90.70
2023-03-24T16:17:52.763Z,90.70
2023-03-24T16:20:23.188Z,90.80
2023-03-24T16:22:51.111Z,90.80
2023-03-24T16:25:18.990Z,90.80
2023-03-24T16:27:46.910Z,90.70
2023-03-24T16:30:21.600Z,90.80
2023-03-24T16:32:50.934Z,90.80
2023-03-24T16:35:19.302Z,90.80
2023-03-24T16:37:48.103Z,90.80
2023-03-24T16:40:23.279Z,90.80
2023-03-24T16:42:51.191Z,90.70
2023-03-24T16:45:19.297Z,90.60
2023-03-24T16:47:47.263Z,90.80
2023-03-24T16:50:30.135Z,90.40
2023-03-24T16:52:58.110Z,90.70
2023-03-24T16:55:26.027Z,90.70
2023-03-24T16:57:54.158Z,90.50
2023-03-24T17:00:23.799Z,90.60
2023-03-24T17:02:53.803Z,90.70
2023-03-24T17:05:27.596Z,90.80
2023-03-24T17:07:55.918Z,90.70
2023-03-24T17:10:24.645Z,90.70
2023-03-24T17:12:55.285Z,90.60
2023-03-24T17:15:24.950Z,86.00
2023-03-24T17:17:53.314Z,85.00
2023-03-24T17:20:23.750Z,88.20
2023-03-24T17:22:56.676Z,88.00
2023-03-24T17:25:29.046Z,88.80
2023-03-24T17:27:57.915Z,89.30
2023-03-24T17:30:28.163Z,89.30
2023-03-24T17:32:57.627Z,89.70
2023-03-24T17:35:26.026Z,89.80
2023-03-24T17:37:55.257Z,90.00
2023-03-24T17:40:23.754Z,89.80
2023-03-24T17:42:51.634Z,90.30
2023-03-24T17:45:20.625Z,89.70
2023-03-24T17:47:48.605Z,89.60
2023-03-24T17:50:16.680Z,89.40
2023-03-24T17:52:46.231Z,89.50
2023-03-24T17:55:17.179Z,89.30
2023-03-24T17:57:45.916Z,89.00
2023-03-24T18:00:16.203Z,89.00
2023-03-24T18:02:45.068Z,88.80
2023-03-24T18:05:13.754Z,88.70
2023-03-24T18:07:42.207Z,88.20
2023-03-24T18:10:10.905Z,88.20
2023-03-24T18:12:42.447Z,88.00
2023-03-24T18:15:11.304Z,88.50
2023-03-24T18:17:41.314Z,88.80
2023-03-24T18:20:12.086Z,88.40
2023-03-24T18:22:40.977Z,88.30
2023-03-24T18:25:10.287Z,88.60
2023-03-24T18:27:39.739Z,89.20
2023-03-24T18:30:10.994Z,89.30
2023-03-24T18:32:39.786Z,89.90
2023-03-24T18:35:09.848Z,88.40
2023-03-24T18:37:38.417Z,88.10
2023-03-24T18:40:08.690Z,88.70
2023-03-24T18:42:37.229Z,89.70
2023-03-24T18:45:08.120Z,89.80
2023-03-24T18:47:36.459Z,89.70
2023-03-24T18:50:04.599Z,89.80
2023-03-24T18:52:33.020Z,89.90
2023-03-24T18:55:02.811Z,90.20
2023-03-24T18:57:31.056Z,90.20
2023-03-24T19:00:00.309Z,90.10
2023-03-24T19:02:29.804Z,90.40
2023-03-24T19:04:57.732Z,90.30
2023-03-24T19:07:26.266Z,90.50
2023-03-24T19:09:54.241Z,90.70
2023-03-24T19:12:22.145Z,90.30
2023-03-24T19:14:50.675Z,90.50
2023-03-24T19:17:18.552Z,90.60
2023-03-24T19:19:47.857Z,90.50
2023-03-24T19:22:21.469Z,90.70
2023-03-24T19:24:49.482Z,90.80
2023-03-24T19:27:17.516Z,90.90
2023-03-24T19:29:46.725Z,90.80
2023-03-24T19:32:14.655Z,91.00
2023-03-24T19:34:42.548Z,91.30
2023-03-24T19:37:13.827Z,90.80
2023-03-24T19:39:41.756Z,91.30
2023-03-24T19:42:09.706Z,91.20
2023-03-24T19:44:37.580Z,91.10
2023-03-24T19:47:06.175Z,91.10
2023-03-24T19:49:34.053Z,91.40
2023-03-24T19:52:01.939Z,90.90
2023-03-24T19:54:31.211Z,91.50
2023-03-24T19:56:59.173Z,91.30
2023-03-24T19:59:27.459Z,91.40
2023-03-24T20:01:55.366Z,91.60
2023-03-24T20:04:24.012Z,91.50
2023-03-24T20:06:52.387Z,91.70
2023-03-24T20:09:20.377Z,91.80
2023-03-24T20:11:52.419Z,91.90
2023-03-24T20:14:20.366Z,91.80
2023-03-24T20:16:48.259Z,92.00
2023-03-24T20:19:16.271Z,91.70
2023-03-24T20:21:44.268Z,91.90
2023-03-24T20:24:12.211Z,92.00
2023-03-24T20:26:40.592Z,92.10
2023-03-24T20:29:09.885Z,92.10
2023-03-24T20:31:40.677Z,92.10
2023-03-24T20:34:09.068Z,92.00
2023-03-24T20:36:38.238Z,92.20
2023-03-24T20:39:06.501Z,92.00
2023-03-24T20:41:34.448Z,92.10
2023-03-24T20:44:02.364Z,92.10
2023-03-24T20:46:31.625Z,92.10
2023-03-24T20:48:59.622Z,91.60
2023-03-24T20:51:28.294Z,92.30
2023-03-24T20:53:56.397Z,92.00
2023-03-24T20:56:24.994Z,92.10
2023-03-24T20:58:53.116Z,92.40
2023-03-24T21:01:22.192Z,92.60
2023-03-24T21:03:53.094Z,92.50
2023-03-24T21:06:21.754Z,92.50
2023-03-24T21:08:49.802Z,92.50
2023-03-24T21:11:17.714Z,92.70
2023-03-24T21:13:45.789Z,92.60
2023-03-24T21:16:14.153Z,92.60
2023-03-24T21:18:43.655Z,92.10
2023-03-24T21:21:13.478Z,92.90
2023-03-24T21:23:42.699Z,92.80
2023-03-24T21:26:13.632Z,92.10
2023-03-24T21:28:41.536Z,92.70
2023-03-24T21:31:11.151Z,92.50
2023-03-24T21:33:40.557Z,92.50
2023-03-24T21:36:09.887Z,92.80
2023-03-24T21:38:40.011Z,92.70
2023-03-24T21:41:08.622Z,92.80
2023-03-24T21:43:37.330Z,93.40
2023-03-24T21:46:05.531Z,93.10
2023-03-24T21:48:34.853Z,93.30
2023-03-24T21:51:03.876Z,93.20
2023-03-24T21:53:31.972Z,93.00
2023-03-24T21:56:04.455Z,93.30
2023-03-24T21:58:33.542Z,93.30
2023-03-24T22:01:02.171Z,93.20
2023-03-24T22:03:30.375Z,93.20
2023-03-24T22:05:58.672Z,93.20
2023-03-24T22:08:30.501Z,93.10
2023-03-24T22:10:59.249Z,93.10
2023-03-24T22:13:29.640Z,93.30
2023-03-24T22:15:59.208Z,93.40
2023-03-24T22:18:29.392Z,93.30
2023-03-24T22:21:00.935Z,93.30
2023-03-24T22:23:32.674Z,93.40
2023-03-24T22:26:01.671Z,93.40
2023-03-24T22:28:32.582Z,93.40
2023-03-24T22:31:01.769Z,93.80
2023-03-24T22:33:30.054Z,93.40
2023-03-24T22:35:58.269Z,93.20
2023-03-24T22:38:26.583Z,93.30
2023-03-24T22:40:57.485Z,93.70
2023-03-24T22:43:25.645Z,93.20
2023-03-24T22:45:54.983Z,93.30
2023-03-24T22:48:23.709Z,93.40
2023-03-24T22:50:51.990Z,93.10
2023-03-24T22:53:20.332Z,93.40
2023-03-24T22:55:48.667Z,93.00
2023-03-24T22:58:16.952Z,92.90
2023-03-24T23:00:48.201Z,92.90
2023-03-24T23:03:17.666Z,92.80
2023-03-24T23:05:47.162Z,92.80
2023-03-24T23:08:16.139Z,93.20
